Jeffersonville, OH (43128)

1:12 PM EST on February 22, 2017 (GMT -0500)
Slightly NW of WCH | | Change Station

Elev 1020 ft 39.57 °N, 83.50 °W | Updated 23 seconds ago

Overcast
Overcast
57.2 °F
Feels Like 57.2 °F
N
4.0
Wind Variable Wind from ESE

Today
High -- | Low -- °F
--% Chance of Precip.
Yesterday
High -- | Low -- °F
Precip. -- in
Pressure 29.90 in
Visibility 5.0 miles
Clouds Overcast 600 ft
Dew Point 56 °F
Humidity 98%
Rainfall 0.10 in
Snow Depth Not available.
7:16 AM 6:18 PM
Waning Crescent, 16% visible
METAR KILN 221754Z AUTO 19008KT 5SM BR OVC006 14/13 A2988 RMK AO2 SLP124 60004 T01390128 10139 20117 58018
Pressure 29.90 in
Visibility 5.0 miles
Clouds Overcast 600 ft
Dew Point 56 °F
Humidity 98%
Rainfall 0.10 in
Snow Depth Not available.
7:16 AM 6:18 PM
Waning Crescent, 16% visible
METAR KILN 221754Z AUTO 19008KT 5SM BR OVC006 14/13 A2988 RMK AO2 SLP124 60004 T01390128 10139 20117 58018

Get Your Daily Forecast Email!

Thanks for signing up!

Be on the lookout for a verification email in your inbox.

You'll start receiving the daily forecast at 8 AM.

×

10-Day Weather Forecast

Almanac

Astronomy

Feb. 22, 2017 Rise Set
Actual Time
Civil Twilight
Nautical Twilight
Astronomical Twilight
Moon
Length of Visible Light
Length of Day
Tomorrow will be .
, % of the Moon is Illuminated

Today's Extremes

State Highs State Lows

Community

WunderPhotos

Upload Photos

1,962,540 photos uploaded!

WunderBlog® & News

Nearby

Air Quality

  Air Quality AQ Index Pollutant
Not available.

Snow Depth

Station Depth Elevation

Earthquake Activity

City Distance Mag. Time & Date
Minimum magnitude displayed is 2.5.

Coastal Water Temperatures

Place Temperature

Stations

Nearby Weather Stations

Station Location Temp. Windchill Dew Point Humidity Wind Precip. Elev Updated Type
                   

Watches & Warnings

There are currently no watches in effect.